Time;durP1;ratioP1;P1;durP2;ratioP2;P2;SDS_P1;SDS_P2;PMS_P1;PMS_P2;Temp;Humidity;BMP_temperature;BMP_pressure;BME280_temperature;BME280_humidity;BME280_pressure;Samples;Min_cycle;Max_cycle;Signal;HPM_P1;HPM_P2
2022/04/26 03:36:58;;;;;;;8.77;7.97;;;;;;;10.14;100.00;99851.63;5012204;28;20339;-53
2022/04/26 03:39:23;;;;;;;7.80;7.20;;;;;;;10.16;100.00;99859.38;5009606;28;20274;-51
2022/04/26 03:41:48;;;;;;;9.00;8.20;;;;;;;10.17;100.00;99866.25;5018961;28;20238;-51
2022/04/26 03:44:14;;;;;;;7.87;7.27;;;;;;;10.17;100.00;99872.28;5013310;28;20818;-51
2022/04/26 03:46:39;;;;;;;8.50;7.80;;;;;;;10.16;100.00;99870.56;5016413;28;20579;-52
2022/04/26 03:49:04;;;;;;;8.97;8.17;;;;;;;10.17;100.00;99879.19;5015631;28;20677;-52
2022/04/26 03:51:30;;;;;;;7.87;7.27;;;;;;;10.16;100.00;99874.88;5017566;28;20243;-52
2022/04/26 03:53:56;;;;;;;8.40;7.70;;;;;;;10.17;100.00;99879.19;5030280;28;20910;-52
2022/04/26 03:56:21;;;;;;;8.10;7.50;;;;;;;10.17;100.00;99882.59;5016581;28;20195;-52
2022/04/26 03:58:46;;;;;;;8.60;7.90;;;;;;;10.18;100.00;99886.06;5028167;28;20278;-52
2022/04/26 04:01:12;;;;;;;8.00;7.40;;;;;;;10.20;100.00;99889.50;5026014;28;20566;-52
2022/04/26 04:03:38;;;;;;;8.00;7.40;;;;;;;10.22;100.00;99895.47;5027150;28;20638;-52
2022/04/26 04:06:04;;;;;;;7.67;7.07;;;;;;;10.22;100.00;99891.16;5028358;28;20650;-52
2022/04/26 04:08:29;;;;;;;7.50;6.80;;;;;;;10.21;100.00;99889.47;5025337;28;20195;-51
2022/04/26 04:10:55;;;;;;;7.57;6.90;;;;;;;10.20;100.00;99886.91;5026249;28;20249;-52
2022/04/26 04:13:20;;;;;;;7.77;7.07;;;;;;;10.16;100.00;99890.41;5026830;28;20191;-51
2022/04/26 04:15:46;;;;;;;7.30;6.70;;;;;;;10.11;100.00;99887.88;5022991;28;20191;-52
2022/04/26 04:20:56;;;;;;;8.27;7.47;;;;;;;10.05;100.00;99880.19;5028779;28;20249;-52
2022/04/26 04:23:22;;;;;;;8.10;7.40;;;;;;;10.01;100.00;99887.16;5027071;28;20210;-52
2022/04/26 04:25:52;;;;;;;8.27;7.47;;;;;;;9.97;100.00;99890.63;5019301;28;20207;-52
2022/04/26 04:28:26;;;;;;;8.90;8.10;;;;;;;9.96;100.00;99901.00;5020469;28;20660;-52
2022/04/26 04:30:55;;;;;;;9.10;8.30;;;;;;;9.96;100.00;99904.44;5017399;28;20290;-52
2022/04/26 04:33:21;;;;;;;9.37;8.60;;;;;;;9.96;100.00;99901.84;5014594;28;20369;-52
2022/04/26 04:35:46;;;;;;;9.80;8.90;;;;;;;9.98;100.00;99914.78;5018585;28;20250;-52
2022/04/26 04:38:11;;;;;;;9.30;8.50;;;;;;;9.99;100.00;99911.28;5014179;28;20274;-53
2022/04/26 04:40:36;;;;;;;8.70;8.00;;;;;;;9.99;100.00;99907.00;5014930;28;20220;-53
2022/04/26 04:43:02;;;;;;;8.60;7.90;;;;;;;10.03;100.00;99913.84;5012475;28;20206;-53
2022/04/26 04:45:27;;;;;;;8.83;8.03;;;;;;;10.03;100.00;99915.56;5013259;28;20188;-54
2022/04/26 04:47:52;;;;;;;8.97;8.27;;;;;;;10.03;100.00;99916.44;5012210;28;20788;-53
2022/04/26 04:50:18;;;;;;;9.57;8.77;;;;;;;10.08;100.00;99929.28;5022737;28;20203;-53
2022/04/26 04:52:43;;;;;;;9.83;9.03;;;;;;;10.11;100.00;99930.97;5026514;28;20207;-53
2022/04/26 04:55:09;;;;;;;9.70;8.90;;;;;;;10.13;100.00;99936.97;5021683;28;20208;-52
2022/04/26 04:57:34;;;;;;;9.13;8.40;;;;;;;10.13;100.00;99935.25;5023932;28;20202;-53
2022/04/26 05:00:00;;;;;;;9.67;8.87;;;;;;;10.14;100.00;99930.94;5007990;28;123471;-52
2022/04/26 05:02:26;;;;;;;10.13;9.27;;;;;;;10.13;100.00;99932.69;5014451;28;20187;-52
2022/04/26 05:04:51;;;;;;;10.33;9.43;;;;;;;10.10;100.00;99929.25;5025210;28;20198;-52
2022/04/26 05:07:16;;;;;;;10.27;9.47;;;;;;;10.06;100.00;99934.47;5017764;28;20242;-52
2022/04/26 05:09:42;;;;;;;10.57;9.67;;;;;;;10.04;100.00;99943.13;5022537;28;20215;-52
2022/04/26 05:12:07;;;;;;;10.63;9.77;;;;;;;10.03;100.00;99942.28;5024119;28;20211;-52
2022/04/26 05:14:33;;;;;;;10.73;9.80;;;;;;;10.04;100.00;99938.81;5018817;28;20192;-53
2022/04/26 05:16:58;;;;;;;12.43;11.43;;;;;;;10.09;100.00;99941.34;5011671;28;20266;-52
2022/04/26 05:19:24;;;;;;;12.13;11.13;;;;;;;10.17;100.00;99943.84;5017187;28;20560;-52
2022/04/26 05:21:49;;;;;;;11.17;10.17;;;;;;;10.29;100.00;99945.38;5013360;28;20211;-52
2022/04/26 05:26:58;;;;;;;11.50;10.50;;;;;;;10.66;100.00;99958.69;5019110;28;20680;-52
2022/04/26 05:29:24;;;;;;;10.60;9.70;;;;;;;10.81;100.00;99955.03;5018195;28;20180;-53
2022/04/26 05:31:49;;;;;;;9.93;9.13;;;;;;;10.93;100.00;99956.59;5019962;28;20217;-52
2022/04/26 05:34:14;;;;;;;10.57;9.67;;;;;;;11.35;100.00;99967.97;5019751;28;20195;-53
2022/04/26 05:36:40;;;;;;;10.53;9.63;;;;;;;11.66;100.00;99960.50;5018425;28;20180;-52
2022/04/26 05:39:05;;;;;;;10.00;9.20;;;;;;;11.94;100.00;99956.53;5014603;28;20189;-52
2022/04/26 05:41:30;;;;;;;10.70;9.80;;;;;;;12.09;100.00;99958.00;5021278;28;20211;-52
2022/04/26 05:43:56;;;;;;;9.80;9.00;;;;;;;11.95;100.00;99959.06;5015692;28;20248;-52
2022/04/26 05:46:21;;;;;;;9.67;8.87;;;;;;;11.74;100.00;99960.34;5018680;28;20223;-52
2022/04/26 05:48:47;;;;;;;10.50;9.57;;;;;;;11.55;100.00;99959.84;5016816;28;20198;-52
2022/04/26 05:51:12;;;;;;;10.53;9.63;;;;;;;11.38;100.00;99958.41;5021814;28;20552;-52
2022/04/26 05:53:37;;;;;;;11.57;10.63;;;;;;;11.26;100.00;99958.63;5017131;28;20244;-53
2022/04/26 05:56:05;;;;;;;11.30;10.37;;;;;;;11.15;100.00;99957.97;5024388;28;20200;-53
2022/04/26 05:58:31;;;;;;;11.33;10.33;;;;;;;11.07;100.00;99956.34;5023444;28;20206;-52
2022/04/26 06:00:56;;;;;;;11.53;10.53;;;;;;;11.04;100.00;99963.31;5017252;28;20219;-52
2022/04/26 06:03:22;;;;;;;12.10;11.10;;;;;;;11.02;100.00;99955.59;5015894;28;20196;-52
2022/04/26 06:05:47;;;;;;;11.67;10.77;;;;;;;11.10;100.00;99964.06;5007783;28;20263;-52
2022/04/26 06:08:12;;;;;;;12.73;11.63;;;;;;;11.25;100.00;99962.97;5016370;28;20204;-52
2022/04/26 06:10:39;;;;;;;18.33;16.63;;;;;;;11.41;100.00;99966.13;5017741;28;20232;-52
2022/04/26 06:13:05;;;;;;;47.27;35.27;;;;;;;11.57;100.00;99968.47;5012216;28;20729;-52
2022/04/26 06:15:30;;;;;;;36.53;28.53;;;;;;;11.75;100.00;99972.44;5021759;28;20199;-52
2022/04/26 06:17:55;;;;;;;63.93;48.27;;;;;;;11.94;100.00;99977.28;5023424;28;20188;-52
2022/04/26 06:20:23;;;;;;;77.83;61.30;;;;;;;12.07;100.00;99977.94;5025778;28;20242;-52
2022/04/26 06:22:49;;;;;;;61.50;53.63;;;;;;;12.18;100.00;99979.41;5029906;28;20275;-53
2022/04/26 06:25:14;;;;;;;51.63;46.07;;;;;;;12.39;100.00;99979.84;5023871;28;20194;-53
2022/04/26 06:27:39;;;;;;;42.37;37.87;;;;;;;12.92;100.00;99986.47;5020594;28;20258;-52
2022/04/26 06:30:05;;;;;;;33.17;29.67;;;;;;;13.21;100.00;99984.91;5025103;28;20223;-52
2022/04/26 06:32:31;;;;;;;38.23;34.33;;;;;;;13.33;100.00;99986.34;5030071;28;20216;-54
2022/04/26 06:34:56;;;;;;;28.67;26.00;;;;;;;13.61;100.00;99988.28;5024425;28;20804;-54
2022/04/26 06:37:23;;;;;;;26.47;23.97;;;;;;;13.71;100.00;99987.13;5030203;28;20656;-54
2022/04/26 06:39:48;;;;;;;24.10;21.93;;;;;;;13.74;100.00;99989.66;5024026;28;20213;-53
2022/04/26 06:42:14;;;;;;;22.00;20.10;;;;;;;13.77;100.00;99989.56;5020187;28;21583;-53
2022/04/26 06:44:39;;;;;;;19.43;17.73;;;;;;;13.76;100.00;99987.88;5021813;28;20183;-50
2022/04/26 06:47:05;;;;;;;17.07;15.53;;;;;;;13.77;100.00;99984.34;5021496;28;20238;-51
2022/04/26 06:49:30;;;;;;;15.03;13.80;;;;;;;13.89;100.00;99990.97;5019245;28;20216;-54
2022/04/26 06:51:56;;;;;;;16.67;15.17;;;;;;;14.04;100.00;99992.31;5014294;28;20217;-51
2022/04/26 06:54:21;;;;;;;15.80;14.40;;;;;;;14.12;100.00;99990.34;5021862;28;20304;-54
2022/04/26 06:56:46;;;;;;;14.83;13.60;;;;;;;14.21;100.00;99991.81;5023847;28;20669;-53
2022/04/26 06:59:13;;;;;;;15.30;14.10;;;;;;;14.33;100.00;99991.47;5026418;28;20258;-52
2022/04/26 07:01:39;;;;;;;14.63;13.33;;;;;;;14.60;100.00;99996.72;5009932;28;20228;-51
2022/04/26 07:04:04;;;;;;;14.70;13.47;;;;;;;14.81;100.00;99993.56;5014349;28;20654;-53
2022/04/26 07:06:30;;;;;;;14.13;12.93;;;;;;;14.86;100.00;99994.25;5018403;28;20203;-54
2022/04/26 07:08:56;;;;;;;13.43;12.20;;;;;;;14.86;100.00;99995.13;5014795;28;20189;-51
2022/04/26 07:11:21;;;;;;;12.43;11.43;;;;;;;14.84;100.00;99988.25;5013823;28;20216;-52
2022/04/26 07:13:47;;;;;;;12.50;11.50;;;;;;;14.81;100.00;99999.63;5018078;28;20638;-52
2022/04/26 07:16:12;;;;;;;12.43;11.43;;;;;;;14.73;100.00;99994.66;5017360;28;20207;-52
2022/04/26 07:18:38;;;;;;;11.10;10.20;;;;;;;14.92;100.00;99996.69;5010898;28;20196;-51
2022/04/26 07:21:03;;;;;;;12.10;11.10;;;;;;;15.07;100.00;99990.97;5014010;28;20260;-52
2022/04/26 07:23:28;;;;;;;12.80;11.80;;;;;;;15.13;100.00;99989.94;5009163;28;20250;-52
2022/04/26 07:25:55;;;;;;;12.83;11.73;;;;;;;15.02;100.00;99992.88;5017630;28;20641;-51
2022/04/26 07:28:21;;;;;;;13.30;12.10;;;;;;;14.93;100.00;99987.97;5011764;28;20226;-51
2022/04/26 07:30:47;;;;;;;12.20;11.30;;;;;;;15.18;100.00;99995.84;5019417;28;20217;-51
2022/04/26 07:35:56;;;;;;;11.37;10.40;;;;;;;16.35;97.88;99989.19;5022917;28;20227;-51
2022/04/26 07:38:22;;;;;;;11.23;10.33;;;;;;;16.87;96.06;100000.25;5018750;28;20246;-51
2022/04/26 07:40:47;;;;;;;9.83;9.03;;;;;;;17.29;94.50;99997.75;5026383;28;20717;-51
2022/04/26 07:43:13;;;;;;;10.30;9.50;;;;;;;17.55;93.13;99995.78;5027939;28;20219;-51
2022/04/26 07:45:40;;;;;;;10.13;9.33;;;;;;;17.65;92.25;99992.72;5023706;28;20185;-51
2022/04/26 07:48:07;;;;;;;10.00;9.20;;;;;;;17.67;92.08;99983.03;5020851;28;20630;-51
2022/04/26 07:50:34;;;;;;;9.20;8.47;;;;;;;17.67;92.24;99988.25;5029135;28;20208;-51
2022/04/26 07:53:00;;;;;;;9.97;9.10;;;;;;;17.68;92.00;99989.97;5024250;28;20245;-52
2022/04/26 07:55:26;;;;;;;9.00;8.30;;;;;;;17.74;91.32;99982.78;5025063;28;20191;-51
2022/04/26 07:57:52;;;;;;;9.33;8.60;;;;;;;17.72;91.30;99985.44;5024561;28;21051;-51
2022/04/26 08:00:17;;;;;;;9.70;8.90;;;;;;;17.66;90.87;99986.56;5024277;28;20216;-52
2022/04/26 08:02:43;;;;;;;9.03;8.33;;;;;;;17.63;91.17;99989.31;5025957;28;20630;-52
2022/04/26 08:05:08;;;;;;;9.47;8.67;;;;;;;17.73;89.99;99988.94;5024413;28;20655;-52
2022/04/26 08:07:39;;;;;;;10.13;9.33;;;;;;;17.84;89.61;99997.16;5026081;28;20341;-52
2022/04/26 08:10:07;;;;;;;8.67;8.00;;;;;;;17.95;89.58;99994.91;5026379;28;20213;-51
2022/04/26 08:12:33;;;;;;;8.63;8.00;;;;;;;17.88;89.09;100003.09;5021063;28;20207;-51
2022/04/26 08:14:58;;;;;;;10.43;9.50;;;;;;;17.76;87.73;100014.97;5019743;28;20198;-52
2022/04/26 08:17:23;;;;;;;9.17;8.37;;;;;;;17.54;88.04;100017.66;5013870;28;20218;-51
2022/04/26 08:19:49;;;;;;;10.03;9.23;;;;;;;17.39;87.17;100022.63;5016551;28;20211;-51
2022/04/26 08:22:14;;;;;;;8.83;8.03;;;;;;;17.18;87.63;100033.03;5013334;28;20192;-53
2022/04/26 08:27:30;;;;;;;8.07;7.47;;;;;;;17.02;88.51;100029.34;5015426;28;20285;-53
2022/04/26 08:29:57;;;;;;;7.83;7.23;;;;;;;17.08;88.09;100043.91;5015202;28;20209;-53
2022/04/26 08:32:24;;;;;;;8.27;7.57;;;;;;;17.09;87.99;100045.63;5011424;28;20209;-52
2022/04/26 08:34:51;;;;;;;7.80;7.20;;;;;;;17.05;87.33;100048.34;5011013;28;20233;-53
2022/04/26 08:37:16;;;;;;;7.77;7.27;;;;;;;16.94;87.87;100054.91;5016861;28;20185;-51
2022/04/26 08:39:42;;;;;;;7.87;7.23;;;;;;;16.89;88.03;100052.44;5011804;28;20217;-51
2022/04/26 08:42:07;;;;;;;8.13;7.43;;;;;;;16.93;87.81;100054.03;5011675;28;20189;-51
2022/04/26 08:44:34;;;;;;;8.23;7.53;;;;;;;17.15;87.17;100054.06;5015635;28;20198;-51
2022/04/26 08:52:45;;;;;;;7.27;6.70;;;;;;;17.98;83.33;100047.16;5016898;28;20287;-51
2022/04/26 08:55:10;;;;;;;7.10;6.60;;;;;;;18.06;82.87;100056.47;5021838;28;20216;-51
2022/04/26 08:57:36;;;;;;;7.53;6.93;;;;;;;18.10;82.86;100051.03;5019201;28;20194;-51
2022/04/26 09:00:05;;;;;;;8.03;7.33;;;;;;;18.05;82.02;100055.59;5024656;28;20636;-51
2022/04/26 09:02:30;;;;;;;7.63;7.03;;;;;;;17.84;82.19;100062.59;5025909;28;20280;-52
2022/04/26 09:05:01;;;;;;;9.47;8.73;;;;;;;17.66;82.10;100062.44;5029931;28;20672;-51
2022/04/26 09:07:29;;;;;;;8.27;7.67;;;;;;;17.53;82.85;100058.66;5027575;28;20263;-51
2022/04/26 09:10:05;;;;;;;8.00;7.40;;;;;;;17.45;83.12;100061.59;5016486;28;20297;-51
2022/04/26 09:12:30;;;;;;;8.60;7.83;;;;;;;17.35;83.06;100062.88;5018121;28;20209;-51
2022/04/26 09:14:56;;;;;;;9.97;9.07;;;;;;;17.35;82.67;100063.72;5029694;28;20201;-51
2022/04/26 09:17:21;;;;;;;9.47;8.67;;;;;;;17.43;82.90;100063.41;5027856;28;20189;-51
2022/04/26 09:19:53;;;;;;;8.33;7.63;;;;;;;17.46;82.95;100065.91;5023405;28;20215;-51
2022/04/26 09:22:26;;;;;;;9.40;8.70;;;;;;;17.48;81.66;100065.81;5026729;28;20199;-52
2022/04/26 09:25:08;;;;;;;9.00;8.20;;;;;;;17.39;82.14;100067.09;5017039;28;20269;-51
2022/04/26 09:27:38;;;;;;;9.13;8.40;;;;;;;17.24;81.56;100065.94;5024295;28;20251;-52
2022/04/26 09:30:08;;;;;;;8.40;7.70;;;;;;;17.05;82.54;100071.88;5021897;28;20286;-52
2022/04/26 09:32:49;;;;;;;7.20;6.60;;;;;;;16.97;83.14;100075.72;5014980;28;20214;-52
2022/04/26 09:35:24;;;;;;;7.30;6.70;;;;;;;16.90;83.10;100075.06;5022633;28;20197;-52
2022/04/26 09:37:52;;;;;;;8.03;7.43;;;;;;;16.82;83.29;100082.38;5022249;28;20243;-52
2022/04/26 09:40:21;;;;;;;7.70;7.10;;;;;;;16.71;83.37;100088.81;5010261;28;20289;-52
2022/04/26 09:42:50;;;;;;;8.67;7.93;;;;;;;16.66;83.27;100092.53;5007480;28;20189;-52
2022/04/26 09:45:16;;;;;;;8.30;7.60;;;;;;;16.68;83.77;100093.31;5012971;28;20197;-51
2022/04/26 09:47:44;;;;;;;7.73;7.10;;;;;;;16.75;84.30;100095.66;5010179;28;20234;-51
2022/04/26 09:50:14;;;;;;;8.90;8.10;;;;;;;16.76;84.75;100096.53;5017031;28;20216;-52
2022/04/26 09:52:40;;;;;;;9.20;8.40;;;;;;;16.75;85.25;100084.34;5022388;28;20326;-51
2022/04/26 09:55:08;;;;;;;9.10;8.30;;;;;;;16.85;85.87;100090.09;5011986;28;20208;-51
2022/04/26 09:57:34;;;;;;;9.37;8.57;;;;;;;17.00;86.28;100094.75;5021190;28;20196;-52
2022/04/26 10:00:03;;;;;;;8.97;8.17;;;;;;;17.19;86.33;100091.41;5012855;28;20314;-52
2022/04/26 10:02:32;;;;;;;9.50;8.70;;;;;;;17.36;85.44;100088.13;5021469;28;20211;-52
2022/04/26 10:05:07;;;;;;;8.03;7.43;;;;;;;17.49;85.51;100084.09;5013498;28;20186;-53
2022/04/26 10:07:36;;;;;;;8.70;8.00;;;;;;;17.64;85.45;100089.59;5013432;28;20197;-52
2022/04/26 10:10:03;;;;;;;8.33;7.63;;;;;;;17.64;85.67;100087.81;5015788;28;20237;-52
2022/04/26 10:12:31;;;;;;;8.97;8.20;;;;;;;17.47;86.08;100092.94;5019595;28;20353;-51
2022/04/26 10:14:57;;;;;;;8.33;7.53;;;;;;;17.20;86.39;100090.50;5016359;28;20205;-51
2022/04/26 10:17:22;;;;;;;7.97;7.37;;;;;;;16.97;87.12;100084.41;5014479;28;20211;-52
2022/04/26 10:19:48;;;;;;;7.70;7.10;;;;;;;16.98;87.25;100090.47;5014562;28;20237;-51
2022/04/26 10:22:17;;;;;;;10.67;9.77;;;;;;;17.07;86.47;100098.00;5023156;28;20706;-52
2022/04/26 10:25:12;;;;;;;9.93;9.13;;;;;;;17.18;86.02;100095.78;5014465;28;20194;-53
2022/04/26 10:27:38;;;;;;;8.63;7.93;;;;;;;17.42;85.66;100092.25;5016698;28;20177;-52
2022/04/26 10:30:04;;;;;;;9.07;8.27;;;;;;;17.55;84.98;100089.97;5018366;28;20236;-52
2022/04/26 10:32:34;;;;;;;9.43;8.73;;;;;;;17.57;83.86;100091.63;5015666;28;20221;-51
2022/04/26 10:35:24;;;;;;;11.03;10.10;;;;;;;17.66;82.90;100091.25;5011045;28;20199;-52
2022/04/26 10:38:16;;;;;;;9.40;8.60;;;;;;;17.56;82.26;100103.00;5013542;28;20637;-51
2022/04/26 10:41:07;;;;;;;8.10;7.40;;;;;;;17.54;81.77;100102.22;5018001;28;20203;-51
2022/04/26 10:43:32;;;;;;;9.63;8.73;;;;;;;17.44;80.89;100098.28;5010418;28;20187;-52
2022/04/26 10:46:12;;;;;;;8.10;7.50;;;;;;;17.30;81.81;100102.31;5019178;28;20898;-51
2022/04/26 10:48:38;;;;;;;7.63;6.93;;;;;;;17.30;82.02;100109.28;5019307;28;20534;-52
2022/04/26 10:51:34;;;;;;;6.33;5.83;;;;;;;17.54;80.99;100110.06;5028330;28;20192;-52
2022/04/26 10:54:03;;;;;;;8.30;7.60;;;;;;;17.91;77.31;100118.16;5014048;28;20198;-52
2022/04/26 10:56:30;;;;;;;8.17;7.37;;;;;;;18.31;77.07;100120.84;5018246;28;20188;-51
2022/04/26 10:58:56;;;;;;;8.47;7.77;;;;;;;18.72;77.29;100131.25;5015676;28;20567;-52
2022/04/26 11:01:27;;;;;;;7.03;6.47;;;;;;;19.14;76.49;100135.44;5012567;28;20222;-52
2022/04/26 11:03:55;;;;;;;7.57;6.87;;;;;;;19.45;75.49;100136.59;5013690;28;20191;-52
2022/04/26 11:06:40;;;;;;;6.37;5.87;;;;;;;19.88;74.46;100138.09;5013588;28;20446;-53
2022/04/26 11:09:09;;;;;;;6.50;5.90;;;;;;;20.20;73.16;100138.19;5013576;28;20650;-52
2022/04/26 11:11:50;;;;;;;6.30;5.80;;;;;;;20.29;72.55;100147.38;5014814;28;20733;-52
2022/04/26 11:14:17;;;;;;;5.70;5.30;;;;;;;20.17;72.75;100146.28;5019455;28;20199;-52
2022/04/26 11:16:59;;;;;;;7.00;6.40;;;;;;;19.83;73.18;100151.41;5014251;28;20268;-52
2022/04/26 11:19:32;;;;;;;6.53;5.93;;;;;;;19.55;73.88;100160.63;5012983;28;20188;-52
2022/04/26 11:22:13;;;;;;;6.50;6.00;;;;;;;19.29;74.53;100160.13;5023167;28;20252;-53
2022/04/26 11:30:10;;;;;;;3.60;3.30;;;;;;;18.40;70.70;100170.22;5025917;28;20226;-52
2022/04/26 11:32:43;;;;;;;3.00;2.77;;;;;;;18.19;67.29;100172.00;5017494;28;20211;-52
2022/04/26 11:35:14;;;;;;;2.70;2.50;;;;;;;18.02;69.73;100177.97;5016490;28;20196;-52
2022/04/26 11:37:43;;;;;;;4.03;3.63;;;;;;;18.05;70.76;100180.44;5019873;28;20195;-52
2022/04/26 11:40:09;;;;;;;4.27;3.97;;;;;;;18.16;71.81;100180.84;5016041;28;20238;-52
2022/04/26 11:42:34;;;;;;;4.63;4.30;;;;;;;18.23;72.37;100179.66;5013032;28;20190;-52
2022/04/26 11:45:03;;;;;;;4.80;4.40;;;;;;;18.35;72.99;100177.44;5018607;28;20645;-51
2022/04/26 11:47:48;;;;;;;4.97;4.57;;;;;;;18.38;72.87;100174.66;5014872;28;20225;-52
2022/04/26 11:50:24;;;;;;;4.80;4.40;;;;;;;18.23;73.52;100173.56;5018833;28;20207;-52
2022/04/26 11:52:52;;;;;;;5.20;4.80;;;;;;;18.06;74.11;100175.13;5016370;28;20210;-52
2022/04/26 11:55:37;;;;;;;5.80;5.27;;;;;;;17.78;72.96;100181.50;5019724;28;20202;-52
2022/04/26 11:58:13;;;;;;;5.20;4.80;;;;;;;17.30;73.15;100183.38;5016669;28;20199;-52
2022/04/26 12:00:53;;;;;;;5.43;4.60;;;;;;;16.69;75.92;100189.09;5009532;28;20291;-52
2022/04/26 12:03:20;;;;;;;5.23;4.73;;;;;;;16.17;77.69;100197.84;5013712;28;20622;-53
2022/04/26 12:05:53;;;;;;;4.90;4.50;;;;;;;15.75;80.16;100198.31;5019378;28;20690;-52
2022/04/26 12:08:19;;;;;;;5.30;4.80;;;;;;;15.56;80.64;100204.13;5025684;28;20932;-52
2022/04/26 12:10:47;;;;;;;5.10;4.60;;;;;;;15.52;84.32;100208.56;5015521;28;20258;-52
2022/04/26 12:13:13;;;;;;;5.17;4.20;;;;;;;15.70;83.04;100211.50;5012463;28;20204;-52
2022/04/26 12:15:39;;;;;;;4.70;4.20;;;;;;;15.95;83.78;100209.00;5007457;28;20198;-52
2022/04/26 12:18:07;;;;;;;5.03;3.70;;;;;;;15.96;80.81;100215.06;5011179;28;20192;-52
2022/04/26 12:20:37;;;;;;;4.23;3.90;;;;;;;15.92;79.94;100218.69;5015424;28;20239;-52
2022/04/26 12:23:04;;;;;;;3.40;3.10;;;;;;;15.71;78.06;100226.25;5017922;28;20259;-52
2022/04/26 12:25:32;;;;;;;2.80;2.60;;;;;;;16.12;77.30;100234.53;5014546;28;20278;-52
2022/04/26 12:28:03;;;;;;;2.00;1.80;;;;;;;16.35;75.12;100232.94;5015383;28;20188;-52
2022/04/26 12:30:30;;;;;;;2.13;1.80;;;;;;;16.48;73.32;100233.38;5016868;28;20268;-52
2022/04/26 12:32:56;;;;;;;1.80;1.70;;;;;;;16.84;73.02;100234.75;5020000;28;20203;-52
2022/04/26 12:35:22;;;;;;;1.80;1.70;;;;;;;17.37;73.00;100233.69;5016248;28;20337;-52
2022/04/26 12:38:03;;;;;;;1.63;1.53;;;;;;;17.93;71.23;100226.28;5013952;28;20655;-52
2022/04/26 12:40:28;;;;;;;2.17;1.90;;;;;;;18.23;70.98;100225.97;5016972;28;20202;-52
2022/04/26 12:42:57;;;;;;;1.93;1.80;;;;;;;18.41;70.92;100225.19;5013719;28;20306;-52
2022/04/26 12:45:23;;;;;;;2.27;2.17;;;;;;;18.56;70.70;100214.97;5014769;28;20183;-52
2022/04/26 12:51:17;;;;;;;2.60;2.43;;;;;;;17.99;72.91;100220.84;5017018;28;20505;-53
2022/04/26 12:53:43;;;;;;;3.10;2.80;;;;;;;17.82;72.15;100219.72;5015290;28;20206;-53
2022/04/26 12:56:09;;;;;;;2.80;2.53;;;;;;;17.90;72.09;100221.16;5013622;28;20186;-52
2022/04/26 12:58:37;;;;;;;2.97;2.77;;;;;;;18.04;72.90;100218.88;5016381;28;20256;-52
2022/04/26 13:01:04;;;;;;;2.40;2.30;;;;;;;18.13;73.18;100213.25;5017470;28;20217;-52
2022/04/26 13:03:29;;;;;;;3.83;3.53;;;;;;;18.19;74.52;100214.78;5011827;28;20313;-52
2022/04/26 13:06:15;;;;;;;4.70;4.30;;;;;;;18.07;75.32;100225.75;5008330;28;20273;-52
2022/04/26 13:08:46;;;;;;;4.23;3.93;;;;;;;18.18;75.47;100220.06;5012857;28;20199;-52
2022/04/26 13:11:12;;;;;;;4.93;4.53;;;;;;;18.47;75.42;100224.06;5009601;28;20207;-52
2022/04/26 13:13:42;;;;;;;5.27;4.87;;;;;;;18.82;75.05;100224.31;5013609;28;20199;-53
2022/04/26 13:16:08;;;;;;;4.37;3.97;;;;;;;19.03;74.80;100219.91;5012141;28;20206;-52
2022/04/26 13:18:34;;;;;;;4.00;3.63;;;;;;;19.10;74.41;100215.22;5007532;28;20654;-52
2022/04/26 13:21:01;;;;;;;4.33;4.03;;;;;;;19.08;73.25;100224.06;5006855;28;20215;-52
2022/04/26 13:23:29;;;;;;;5.00;3.40;;;;;;;18.79;73.73;100224.44;5008706;28;20635;-52
2022/04/26 13:25:57;;;;;;;4.70;3.57;;;;;;;18.49;74.81;100229.22;5008488;28;20215;-52
2022/04/26 13:28:23;;;;;;;2.90;2.70;;;;;;;18.19;75.10;100227.00;5007935;28;20198;-52
2022/04/26 13:30:48;;;;;;;3.83;3.53;;;;;;;17.79;74.92;100224.22;5013163;28;20224;-53
2022/04/26 13:33:14;;;;;;;3.20;2.90;;;;;;;17.26;75.82;100223.63;5024971;28;20248;-53
2022/04/26 13:35:39;;;;;;;4.83;3.60;;;;;;;16.87;77.15;100229.38;5024779;28;20209;-52
2022/04/26 13:38:09;;;;;;;4.70;3.57;;;;;;;16.48;78.52;100225.53;5018056;28;20273;-52
2022/04/26 13:40:35;;;;;;;3.90;3.60;;;;;;;16.19;79.32;100229.97;5011813;28;20214;-52
2022/04/26 13:43:01;;;;;;;4.27;3.17;;;;;;;15.98;79.84;100231.53;5020063;28;20210;-52
2022/04/26 13:45:27;;;;;;;4.20;3.80;;;;;;;15.81;80.54;100237.25;5023762;28;20606;-52
2022/04/26 13:47:52;;;;;;;4.07;3.77;;;;;;;15.59;80.49;100240.53;5022289;28;20191;-52
2022/04/26 13:50:18;;;;;;;4.07;3.77;;;;;;;15.35;80.41;100250.81;5028997;28;20579;-52
2022/04/26 13:52:44;;;;;;;5.30;4.83;;;;;;;15.16;83.62;100260.03;5026523;28;20250;-53
2022/04/26 13:55:11;;;;;;;5.40;4.83;;;;;;;14.44;90.90;100261.94;5025754;28;20252;-52
2022/04/26 13:57:39;;;;;;;6.03;5.17;;;;;;;13.90;99.80;100260.63;5023128;28;20683;-52
2022/04/26 14:00:05;;;;;;;9.87;5.17;;;;;;;13.24;100.00;100262.88;5022385;28;20752;-52
2022/04/26 14:02:30;;;;;;;7.50;6.77;;;;;;;12.59;100.00;100253.75;5015176;28;20190;-53
2022/04/26 14:04:56;;;;;;;8.60;7.80;;;;;;;12.16;100.00;100247.53;5021262;28;20199;-51
2022/04/26 14:07:21;;;;;;;9.43;8.63;;;;;;;11.82;100.00;100259.25;5020202;28;20720;-52
2022/04/26 14:09:46;;;;;;;7.50;6.87;;;;;;;11.57;100.00;100262.16;5019877;28;20235;-52
2022/04/26 14:12:14;;;;;;;8.83;7.67;;;;;;;11.38;100.00;100268.50;5023552;28;20205;-52
2022/04/26 14:22:52;;;;;;;9.20;8.30;;;;;;;11.40;100.00;100249.44;5015838;28;20194;-52
2022/04/26 14:25:18;;;;;;;10.73;9.67;;;;;;;11.54;100.00;100245.81;5020383;28;20577;-52
2022/04/26 14:27:45;;;;;;;11.77;10.67;;;;;;;11.71;100.00;100243.84;5018705;28;20275;-55
2022/04/26 14:30:12;;;;;;;11.77;10.63;;;;;;;11.90;100.00;100254.78;5011660;28;20586;-52
2022/04/26 14:32:37;;;;;;;12.80;11.63;;;;;;;11.98;100.00;100253.84;5018479;28;20705;-54
2022/04/26 14:35:03;;;;;;;11.93;10.73;;;;;;;11.96;100.00;100261.63;5021386;28;20291;-52
2022/04/26 14:37:29;;;;;;;13.47;12.00;;;;;;;12.00;100.00;100257.31;5021629;28;20199;-53
2022/04/26 14:39:54;;;;;;;13.60;12.30;;;;;;;12.13;100.00;100260.53;5015555;28;20216;-51
2022/04/26 14:42:20;;;;;;;13.53;12.13;;;;;;;12.34;100.00;100257.63;5019270;28;20191;-53
2022/04/26 14:44:46;;;;;;;14.83;13.33;;;;;;;12.51;100.00;100264.25;5027579;28;20187;-54
2022/04/26 14:47:12;;;;;;;16.97;15.17;;;;;;;12.67;100.00;100272.63;5022437;28;20706;-54
2022/04/26 14:49:38;;;;;;;14.73;12.67;;;;;;;12.80;100.00;100268.91;5020039;28;20207;-53
2022/04/26 14:52:04;;;;;;;14.47;13.07;;;;;;;12.93;100.00;100271.31;5029510;28;20200;-53
2022/04/26 14:54:29;;;;;;;15.43;13.80;;;;;;;13.09;100.00;100275.28;5025290;28;20303;-54
2022/04/26 14:56:55;;;;;;;12.93;11.63;;;;;;;13.30;100.00;100274.91;5020282;28;20196;-53
2022/04/26 14:59:22;;;;;;;12.30;11.20;;;;;;;13.30;100.00;100270.56;5011222;28;20291;-53
2022/04/26 15:01:49;;;;;;;12.23;11.13;;;;;;;13.46;100.00;100271.13;5022010;28;20688;-51
2022/04/26 15:04:19;;;;;;;10.20;9.30;;;;;;;13.74;100.00;100267.94;5024181;28;20297;-51
2022/04/26 15:06:45;;;;;;;8.67;7.87;;;;;;;13.75;100.00;100261.84;5014124;28;20276;-51
2022/04/26 15:17:29;;;;;;;6.03;5.53;;;;;;;13.60;100.00;100260.44;4989420;28;20271;-53
2022/04/26 15:19:56;;;;;;;5.23;4.83;;;;;;;13.65;100.00;100262.91;5017006;28;20952;-53
2022/04/26 15:22:23;;;;;;;4.87;4.57;;;;;;;13.71;100.00;100266.25;5018002;28;20187;-52
2022/04/26 15:24:54;;;;;;;4.10;3.70;;;;;;;13.75;100.00;100268.78;5020147;28;21038;-52
2022/04/26 15:27:20;;;;;;;4.03;3.73;;;;;;;13.69;100.00;100277.56;5016794;28;20608;-52
2022/04/26 15:29:46;;;;;;;3.90;3.60;;;;;;;13.70;100.00;100276.69;5018996;28;20291;-52
2022/04/26 15:32:12;;;;;;;4.00;3.60;;;;;;;13.65;100.00;100275.91;5013255;28;20215;-53
2022/04/26 15:34:38;;;;;;;3.67;3.43;;;;;;;13.70;100.00;100279.28;5017410;28;20228;-53
2022/04/26 15:37:04;;;;;;;4.40;4.00;;;;;;;13.79;100.00;100293.84;5010817;28;20200;-54
2022/04/26 15:39:29;;;;;;;4.37;3.83;;;;;;;13.75;100.00;100287.84;5026362;28;20218;-53